createdAt,value
2018-09-30T00:00:22.709Z,85.05
2018-09-30T00:02:53.323Z,85.46
2018-09-30T00:05:22.791Z,85.48
2018-09-30T00:07:53.248Z,85.04
2018-09-30T00:10:22.744Z,85.98
2018-09-30T00:12:53.248Z,85.82
2018-09-30T00:15:22.691Z,86.29
2018-09-30T00:17:53.369Z,86.42
2018-09-30T00:20:22.763Z,86.16
2018-09-30T00:22:53.280Z,86.23
2018-09-30T00:25:28.000Z,86.26
2018-09-30T00:27:57.475Z,86.26
2018-09-30T00:30:26.936Z,85.13
2018-09-30T00:32:56.364Z,85.60
2018-09-30T00:35:25.756Z,86.07
2018-09-30T00:37:55.221Z,85.37
2018-09-30T00:40:24.639Z,85.42
2018-09-30T00:42:54.046Z,86.24
2018-09-30T00:45:23.469Z,85.48
2018-09-30T00:47:53.773Z,86.23
2018-09-30T00:50:23.156Z,86.43
2018-09-30T00:52:53.660Z,85.87
2018-09-30T00:55:23.151Z,86.22
2018-09-30T00:57:53.776Z,87.21
2018-09-30T01:00:23.167Z,86.83
2018-09-30T01:02:53.810Z,87.22
2018-09-30T01:05:23.214Z,86.74
2018-09-30T01:07:53.884Z,86.65
2018-09-30T01:10:23.407Z,86.70
2018-09-30T01:12:53.829Z,86.36
2018-09-30T01:15:23.208Z,86.68
2018-09-30T01:17:53.872Z,87.10
2018-09-30T01:20:23.340Z,86.62
2018-09-30T01:22:53.882Z,86.20
2018-09-30T01:25:23.300Z,86.66
2018-09-30T01:27:53.888Z,86.98
2018-09-30T01:30:23.371Z,86.83
2018-09-30T01:32:53.851Z,87.61
2018-09-30T01:35:23.239Z,87.34
2018-09-30T01:37:53.906Z,87.70
2018-09-30T01:40:23.315Z,87.43
2018-09-30T01:42:53.827Z,86.32
2018-09-30T01:45:23.260Z,86.24
2018-09-30T01:47:53.882Z,86.40
2018-09-30T01:50:23.275Z,87.32
2018-09-30T01:52:56.009Z,87.55
2018-09-30T01:55:25.434Z,86.98
2018-09-30T01:57:54.836Z,87.36
2018-09-30T02:00:24.297Z,87.14
2018-09-30T02:02:53.895Z,86.62
2018-09-30T02:05:23.311Z,86.66
2018-09-30T02:07:53.960Z,87.20
2018-09-30T02:10:23.369Z,87.80
2018-09-30T02:12:54.007Z,87.34
2018-09-30T02:15:23.475Z,87.70
2018-09-30T02:17:53.927Z,87.58
2018-09-30T02:20:23.354Z,86.88
2018-09-30T02:22:53.996Z,87.77
2018-09-30T02:25:23.447Z,88.39
2018-09-30T02:27:53.967Z,88.18
2018-09-30T02:30:23.403Z,88.46
2018-09-30T02:32:53.908Z,88.28
2018-09-30T02:35:23.325Z,88.31
2018-09-30T02:37:53.971Z,88.38
2018-09-30T02:40:23.452Z,87.46
2018-09-30T02:43:00.598Z,87.05
2018-09-30T02:45:29.996Z,87.53
2018-09-30T02:47:59.369Z,87.81
2018-09-30T02:50:28.828Z,88.44
2018-09-30T02:52:58.236Z,88.22
2018-09-30T02:55:27.626Z,87.99
2018-09-30T02:57:57.010Z,88.28
2018-09-30T03:00:26.471Z,88.22
2018-09-30T03:02:55.853Z,87.63
2018-09-30T03:05:25.295Z,87.62
2018-09-30T03:07:59.835Z,88.26
2018-09-30T03:10:29.258Z,88.48
2018-09-30T03:12:58.647Z,88.44
2018-09-30T03:15:28.103Z,88.60
2018-09-30T03:17:57.504Z,87.63
2018-09-30T03:20:26.923Z,88.38
2018-09-30T03:22:56.488Z,88.61
2018-09-30T03:25:25.891Z,88.72
2018-09-30T03:27:55.276Z,88.51
2018-09-30T03:30:24.696Z,88.28
2018-09-30T03:32:54.096Z,87.81
2018-09-30T03:35:23.491Z,87.51
2018-09-30T03:37:54.056Z,88.47
2018-09-30T03:40:23.517Z,88.49
2018-09-30T03:42:54.084Z,87.59
2018-09-30T03:45:23.468Z,88.79
2018-09-30T03:47:54.107Z,89.54
2018-09-30T03:50:23.509Z,88.84
2018-09-30T03:52:54.054Z,88.35
2018-09-30T03:55:23.444Z,88.79
2018-09-30T03:57:54.076Z,88.76
2018-09-30T04:00:23.480Z,88.10
2018-09-30T04:02:54.012Z,88.10
2018-09-30T04:05:23.489Z,87.58
2018-09-30T04:07:54.011Z,88.92
2018-09-30T04:10:23.461Z,89.43
2018-09-30T04:12:54.088Z,88.96
2018-09-30T04:15:23.491Z,88.44
2018-09-30T04:17:53.999Z,88.22
2018-09-30T04:20:23.414Z,87.93
2018-09-30T04:22:54.036Z,87.91
2018-09-30T04:25:23.436Z,87.85
2018-09-30T04:27:54.056Z,87.97
2018-09-30T04:30:23.495Z,88.09
2018-09-30T04:32:54.011Z,88.26
2018-09-30T04:35:23.411Z,89.41
2018-09-30T04:37:54.051Z,88.86
2018-09-30T04:40:23.579Z,89.45
2018-09-30T04:42:54.364Z,88.28
2018-09-30T04:45:23.782Z,88.14
2018-09-30T04:47:54.233Z,88.45
2018-09-30T04:50:23.654Z,87.91
2018-09-30T04:52:54.270Z,88.12
2018-09-30T04:55:23.676Z,88.30
2018-09-30T04:57:54.284Z,88.78
2018-09-30T05:00:23.747Z,88.58
2018-09-30T05:08:00.492Z,88.03
2018-09-30T05:10:29.899Z,88.70
2018-09-30T05:12:59.372Z,88.27
2018-09-30T05:15:29.167Z,88.41
2018-09-30T05:17:58.593Z,88.04
2018-09-30T05:20:28.016Z,87.93
2018-09-30T05:22:57.447Z,88.92
2018-09-30T05:25:26.900Z,89.22
2018-09-30T05:27:56.312Z,89.51
2018-09-30T05:30:25.708Z,88.62
2018-09-30T05:32:55.862Z,88.42
2018-09-30T05:35:26.288Z,88.11
2018-09-30T05:37:56.683Z,88.37
2018-09-30T05:40:27.105Z,88.16
2018-09-30T05:42:56.599Z,88.72
2018-09-30T05:45:26.028Z,88.24
2018-09-30T05:47:56.802Z,88.16
2018-09-30T05:50:27.282Z,87.41
2018-09-30T05:52:57.841Z,87.67
2018-09-30T05:55:28.697Z,87.97
2018-09-30T05:57:58.347Z,88.33
2018-09-30T06:00:28.732Z,88.08
2018-09-30T06:02:59.159Z,87.89
2018-09-30T06:05:29.769Z,87.73
2018-09-30T06:07:59.789Z,87.81
2018-09-30T06:10:30.282Z,87.96
2018-09-30T06:13:00.675Z,87.73
2018-09-30T06:15:31.237Z,88.09
2018-09-30T06:18:01.667Z,87.12
2018-09-30T06:20:32.401Z,86.87
2018-09-30T06:23:03.078Z,86.57
2018-09-30T06:25:32.518Z,86.63
2018-09-30T06:28:03.415Z,86.94
2018-09-30T06:30:34.257Z,86.89
2018-09-30T06:33:05.300Z,87.95
2018-09-30T06:35:36.261Z,87.18
2018-09-30T06:38:06.977Z,88.40
2018-09-30T06:40:37.858Z,87.79
2018-09-30T06:43:08.750Z,87.58
2018-09-30T06:45:39.363Z,86.79
2018-09-30T06:48:08.774Z,86.73
2018-09-30T06:50:39.370Z,86.88
2018-09-30T06:53:09.925Z,86.87
2018-09-30T06:55:39.396Z,87.20
2018-09-30T06:58:10.080Z,88.93
2018-09-30T07:00:39.611Z,88.81
2018-09-30T07:03:09.080Z,88.93
2018-09-30T07:05:39.582Z,87.36
2018-09-30T07:08:12.332Z,86.63
2018-09-30T07:10:41.799Z,85.95
2018-09-30T07:13:12.764Z,85.90
2018-09-30T07:15:42.360Z,84.93
2018-09-30T07:18:11.875Z,84.41
2018-09-30T07:20:42.485Z,84.48
2018-09-30T07:23:13.277Z,83.57
2018-09-30T07:25:44.093Z,82.65
2018-09-30T07:28:13.551Z,83.08
2018-09-30T07:30:42.964Z,82.21
2018-09-30T07:33:12.392Z,82.00
2018-09-30T07:35:41.792Z,81.86
2018-09-30T07:38:11.295Z,81.59
2018-09-30T07:40:40.700Z,81.50
2018-09-30T07:43:10.200Z,81.13
2018-09-30T07:45:39.667Z,80.99
2018-09-30T07:48:09.235Z,80.30
2018-09-30T07:50:38.815Z,79.79
2018-09-30T07:53:08.763Z,79.19
2018-09-30T07:55:38.202Z,79.43
2018-09-30T07:58:07.627Z,77.68
2018-09-30T08:00:37.028Z,78.05
2018-09-30T08:03:06.493Z,77.32
2018-09-30T08:05:35.958Z,77.28
2018-09-30T08:08:05.532Z,77.24
2018-09-30T08:10:34.939Z,76.20
2018-09-30T08:13:04.403Z,75.70
2018-09-30T08:15:33.799Z,75.59
2018-09-30T08:18:03.221Z,75.11
2018-09-30T08:20:32.619Z,75.42
2018-09-30T08:23:02.031Z,74.93
2018-09-30T08:25:31.454Z,74.80
2018-09-30T08:28:00.864Z,74.29
2018-09-30T08:30:30.316Z,73.66
2018-09-30T08:32:59.752Z,72.98
2018-09-30T08:35:29.147Z,73.14
2018-09-30T08:38:03.746Z,72.97
2018-09-30T08:40:38.479Z,71.14
2018-09-30T08:43:08.146Z,70.60
2018-09-30T08:45:37.666Z,69.50
2018-09-30T08:48:07.104Z,68.59
2018-09-30T08:50:36.568Z,69.19
2018-09-30T08:53:06.135Z,68.53
2018-09-30T08:55:35.550Z,67.22
2018-09-30T08:58:04.981Z,66.70
2018-09-30T09:00:34.406Z,65.76
2018-09-30T09:03:03.890Z,66.02
2018-09-30T09:05:33.231Z,66.37
2018-09-30T09:08:02.710Z,64.69
2018-09-30T09:10:32.136Z,65.50
2018-09-30T09:13:01.548Z,64.63
2018-09-30T09:15:30.978Z,62.61
2018-09-30T09:18:00.387Z,62.19
2018-09-30T09:20:29.817Z,62.18
2018-09-30T09:22:59.260Z,61.37
2018-09-30T09:25:28.691Z,59.07
2018-09-30T09:27:58.157Z,59.31
2018-09-30T09:30:27.581Z,59.87
2018-09-30T09:32:57.024Z,58.59
2018-09-30T09:35:26.456Z,58.17
2018-09-30T09:37:56.529Z,59.02
2018-09-30T09:40:25.944Z,58.86
2018-09-30T09:42:56.459Z,58.71
2018-09-30T09:45:25.949Z,58.03
2018-09-30T09:47:56.487Z,58.04
2018-09-30T09:50:25.963Z,58.03
2018-09-30T09:52:56.475Z,56.20
2018-09-30T09:55:25.902Z,55.92
2018-09-30T09:57:56.565Z,55.44
2018-09-30T10:00:30.931Z,56.02
2018-09-30T10:03:00.367Z,53.51
2018-09-30T10:05:29.800Z,53.65
2018-09-30T10:07:59.225Z,53.17
2018-09-30T10:10:28.640Z,52.89
2018-09-30T10:12:58.138Z,53.22
2018-09-30T10:15:27.552Z,52.60
2018-09-30T10:17:57.006Z,52.16
2018-09-30T10:20:26.464Z,53.37
2018-09-30T10:22:56.587Z,53.24
2018-09-30T10:25:26.012Z,53.48
2018-09-30T10:27:56.545Z,51.59
2018-09-30T10:30:25.984Z,51.09
2018-09-30T10:32:56.639Z,50.33
2018-09-30T10:35:26.055Z,51.18
2018-09-30T10:37:56.605Z,50.49
2018-09-30T10:40:26.012Z,48.83
2018-09-30T10:43:03.280Z,49.80
2018-09-30T10:45:32.688Z,48.57
2018-09-30T10:48:02.092Z,48.70
2018-09-30T10:50:31.552Z,48.13
2018-09-30T10:53:00.967Z,47.20
2018-09-30T10:55:30.503Z,46.94
2018-09-30T10:57:59.927Z,48.54
2018-09-30T11:00:29.359Z,48.39
2018-09-30T11:02:58.813Z,45.53
2018-09-30T11:05:28.215Z,46.52
2018-09-30T11:07:57.624Z,45.03
2018-09-30T11:10:27.100Z,45.93
2018-09-30T11:12:56.632Z,45.41
2018-09-30T11:15:26.052Z,43.99
2018-09-30T11:17:56.716Z,43.14
2018-09-30T11:20:26.144Z,44.30
2018-09-30T11:22:56.795Z,43.39
2018-09-30T11:25:26.220Z,42.66
2018-09-30T11:27:56.843Z,42.13
2018-09-30T11:30:26.292Z,45.18
2018-09-30T11:32:56.967Z,44.68
2018-09-30T11:35:26.392Z,44.17
2018-09-30T11:37:57.067Z,44.37
2018-09-30T11:40:26.504Z,43.18
2018-09-30T11:42:57.092Z,43.29
2018-09-30T11:45:26.708Z,42.57
2018-09-30T11:47:57.133Z,42.65
2018-09-30T11:50:26.551Z,43.60
2018-09-30T11:52:57.216Z,42.54
2018-09-30T11:55:26.673Z,41.86
2018-09-30T11:57:57.172Z,42.48
2018-09-30T12:00:26.580Z,41.50
2018-09-30T12:02:57.263Z,42.58
2018-09-30T12:05:26.696Z,38.05
2018-09-30T12:07:57.363Z,38.42
2018-09-30T12:10:26.779Z,37.07
2018-09-30T12:12:57.562Z,36.04
2018-09-30T12:15:27.220Z,37.91
2018-09-30T12:17:57.447Z,34.47
2018-09-30T12:20:26.860Z,38.00
2018-09-30T12:22:57.312Z,38.13
2018-09-30T12:25:26.784Z,37.03
2018-09-30T12:27:57.447Z,35.72
2018-09-30T12:30:33.551Z,35.17
2018-09-30T12:33:02.983Z,35.66
2018-09-30T12:35:32.380Z,34.93
2018-09-30T12:38:01.775Z,34.25
2018-09-30T12:40:31.292Z,34.65
2018-09-30T12:43:00.708Z,35.14
2018-09-30T12:45:30.242Z,31.67
2018-09-30T12:47:59.647Z,33.74
2018-09-30T12:50:29.040Z,32.57
2018-09-30T12:52:58.488Z,31.91
2018-09-30T12:55:27.945Z,30.85
2018-09-30T12:57:57.742Z,31.01
2018-09-30T13:00:27.108Z,31.27
2018-09-30T13:02:57.531Z,31.69
2018-09-30T13:05:26.942Z,31.57
2018-09-30T13:07:57.591Z,31.61
2018-09-30T13:10:27.157Z,31.60
2018-09-30T13:12:59.263Z,29.10
2018-09-30T13:15:29.471Z,29.14
2018-09-30T13:17:58.901Z,29.86
2018-09-30T13:20:28.322Z,29.97
2018-09-30T13:22:57.717Z,29.91
2018-09-30T13:25:27.136Z,28.14
2018-09-30T13:27:57.607Z,28.56
2018-09-30T13:30:27.092Z,29.27
2018-09-30T13:32:57.587Z,28.33
2018-09-30T13:35:27.125Z,25.72
2018-09-30T13:37:57.516Z,24.73
2018-09-30T13:40:27.381Z,26.71
2018-09-30T13:42:57.549Z,26.17
2018-09-30T13:45:26.975Z,26.24
2018-09-30T13:47:57.600Z,26.46
2018-09-30T13:50:27.128Z,26.85
2018-09-30T13:52:57.550Z,27.35
2018-09-30T13:55:26.956Z,27.12
2018-09-30T13:57:57.611Z,27.20
2018-09-30T14:00:27.044Z,27.81
2018-09-30T14:02:57.703Z,27.09
2018-09-30T14:05:27.131Z,27.73
2018-09-30T14:07:57.531Z,27.31
2018-09-30T14:10:26.960Z,24.97
2018-09-30T14:12:57.632Z,25.08
2018-09-30T14:15:27.115Z,25.09
2018-09-30T14:17:57.555Z,24.38
2018-09-30T14:20:26.967Z,25.31
2018-09-30T14:22:57.613Z,25.25
2018-09-30T14:25:27.039Z,24.81
2018-09-30T14:27:57.694Z,25.39
2018-09-30T14:30:27.162Z,25.95
2018-09-30T14:32:57.694Z,26.47
2018-09-30T14:35:27.096Z,25.43
2018-09-30T14:37:57.635Z,25.00
2018-09-30T14:40:27.164Z,27.12
2018-09-30T14:42:57.573Z,26.28
2018-09-30T14:45:27.001Z,27.28
2018-09-30T14:47:57.687Z,27.62
2018-09-30T14:50:27.063Z,26.69
2018-09-30T14:52:57.728Z,26.77
2018-09-30T14:55:27.155Z,27.60
2018-09-30T14:57:57.587Z,26.85
2018-09-30T15:00:27.104Z,28.06
2018-09-30T15:02:57.611Z,27.40
2018-09-30T15:05:27.032Z,28.04
2018-09-30T15:07:57.675Z,28.08
2018-09-30T15:10:27.114Z,27.90
2018-09-30T15:12:57.612Z,28.44
2018-09-30T15:15:27.029Z,28.75
2018-09-30T15:17:57.656Z,29.37
2018-09-30T15:20:27.076Z,29.31
2018-09-30T15:22:57.579Z,30.52
2018-09-30T15:25:26.991Z,29.20
2018-09-30T15:27:57.708Z,29.45
2018-09-30T15:30:27.100Z,29.97
2018-09-30T15:32:57.832Z,29.38
2018-09-30T15:35:27.276Z,29.98
2018-09-30T15:37:57.804Z,28.52
2018-09-30T15:40:27.207Z,29.28
2018-09-30T15:42:57.931Z,29.04
2018-09-30T15:45:27.293Z,29.10
2018-09-30T15:47:57.831Z,30.06
2018-09-30T15:50:27.324Z,28.73
2018-09-30T15:52:57.827Z,29.06
2018-09-30T15:55:27.239Z,29.49
2018-09-30T15:57:57.895Z,31.50
2018-09-30T16:00:27.295Z,32.85
2018-09-30T16:02:58.011Z,34.02
2018-09-30T16:05:27.492Z,34.77
2018-09-30T16:07:57.975Z,35.39
2018-09-30T16:10:27.424Z,36.39
2018-09-30T16:12:58.073Z,35.72
2018-09-30T16:15:27.492Z,35.50
2018-09-30T16:17:58.091Z,36.25
2018-09-30T16:20:27.514Z,37.54
2018-09-30T16:22:57.956Z,37.64
2018-09-30T16:25:27.391Z,39.06
2018-09-30T16:27:57.944Z,39.96
2018-09-30T16:30:27.502Z,41.25
2018-09-30T16:32:57.916Z,41.41
2018-09-30T16:35:28.262Z,42.16
2018-09-30T16:37:59.081Z,42.58
2018-09-30T16:40:29.579Z,43.50
2018-09-30T16:42:59.031Z,44.05
2018-09-30T16:45:29.409Z,45.50
2018-09-30T16:47:58.894Z,45.13
2018-09-30T16:50:30.200Z,45.09
2018-09-30T16:53:00.803Z,45.64
2018-09-30T16:55:31.182Z,44.78
2018-09-30T16:58:00.720Z,45.94
2018-09-30T17:00:30.144Z,46.30
2018-09-30T17:02:59.557Z,46.65
2018-09-30T17:05:28.989Z,46.65
2018-09-30T17:07:58.596Z,47.97
2018-09-30T17:10:28.068Z,49.24
2018-09-30T17:12:58.226Z,49.11
2018-09-30T17:15:27.732Z,48.75
2018-09-30T17:17:58.207Z,50.01
2018-09-30T17:20:27.717Z,52.89
2018-09-30T17:22:58.198Z,54.37
2018-09-30T17:25:27.879Z,55.12
2018-09-30T17:27:58.455Z,56.75
2018-09-30T17:30:30.490Z,56.73
2018-09-30T17:33:01.046Z,57.62
2018-09-30T17:35:31.540Z,58.99
2018-09-30T17:38:01.314Z,58.22
2018-09-30T17:40:32.144Z,57.90
2018-09-30T17:43:03.154Z,58.49
2018-09-30T17:45:33.719Z,59.08
2018-09-30T17:48:05.289Z,59.38
2018-09-30T17:50:38.227Z,59.26
2018-09-30T17:53:10.814Z,59.14
2018-09-30T17:55:43.646Z,60.27
2018-09-30T17:58:16.234Z,60.10
2018-09-30T18:00:49.457Z,60.46
2018-09-30T18:03:22.109Z,60.78
2018-09-30T18:05:55.099Z,60.87
2018-09-30T18:08:28.781Z,61.40
2018-09-30T18:11:01.717Z,61.67
2018-09-30T18:13:34.403Z,61.17
2018-09-30T18:16:07.582Z,61.47
2018-09-30T18:18:40.307Z,61.58
2018-09-30T18:21:13.648Z,60.97
2018-09-30T18:23:46.326Z,61.32
2018-09-30T18:26:20.520Z,61.99
2018-09-30T18:28:53.229Z,63.15
2018-09-30T18:31:27.035Z,62.44
2018-09-30T18:33:59.908Z,62.70
2018-09-30T18:36:32.776Z,63.60
2018-09-30T18:39:07.229Z,63.68
2018-09-30T18:41:40.360Z,63.79
2018-09-30T18:44:13.382Z,64.25
2018-09-30T18:46:46.584Z,64.24
2018-09-30T18:49:19.462Z,64.03
2018-09-30T18:51:52.599Z,63.97
2018-09-30T18:54:25.546Z,63.51
2018-09-30T18:56:59.694Z,63.79
2018-09-30T18:59:32.594Z,64.01
2018-09-30T19:02:05.897Z,63.73
2018-09-30T19:04:39.043Z,64.91
2018-09-30T19:07:12.473Z,64.48
2018-09-30T19:09:45.916Z,64.56
2018-09-30T19:12:19.112Z,64.97
2018-09-30T19:14:52.028Z,64.74
2018-09-30T19:17:24.945Z,65.23
2018-09-30T19:19:58.157Z,65.94
2018-09-30T19:22:31.383Z,66.00
2018-09-30T19:25:04.411Z,66.81
2018-09-30T19:27:38.747Z,66.46
2018-09-30T19:30:11.614Z,65.87
2018-09-30T19:32:44.578Z,65.04
2018-09-30T19:35:17.685Z,66.30
2018-09-30T19:37:50.835Z,65.48
2018-09-30T19:40:23.969Z,65.96
2018-09-30T19:42:58.682Z,66.51
2018-09-30T19:45:31.573Z,66.67
2018-09-30T19:48:04.535Z,66.65
2018-09-30T19:50:37.661Z,67.77
2018-09-30T19:53:11.407Z,68.54
2018-09-30T19:55:44.367Z,67.56
2018-09-30T19:58:17.449Z,67.93
2018-09-30T20:00:50.466Z,68.19
2018-09-30T20:03:23.585Z,69.28
2018-09-30T20:05:56.370Z,70.25
2018-09-30T20:08:29.620Z,69.83
2018-09-30T20:11:02.593Z,70.43
2018-09-30T20:13:35.986Z,70.23
2018-09-30T20:16:09.823Z,71.60
2018-09-30T20:18:42.730Z,71.71
2018-09-30T20:21:15.894Z,72.25
2018-09-30T20:23:48.720Z,71.47
2018-09-30T20:26:21.858Z,72.04
2018-09-30T20:28:55.714Z,72.71
2018-09-30T20:31:28.872Z,73.18
2018-09-30T20:34:02.102Z,72.93
2018-09-30T20:36:35.039Z,73.21
2018-09-30T20:39:08.628Z,73.52
2018-09-30T20:41:41.667Z,74.44
2018-09-30T20:44:13.336Z,74.77
2018-09-30T20:46:44.267Z,74.75
2018-09-30T20:49:14.225Z,74.92
2018-09-30T20:51:43.943Z,74.49
2018-09-30T20:54:13.402Z,74.70
2018-09-30T20:56:42.828Z,75.26
2018-09-30T20:59:12.286Z,75.99
2018-09-30T21:01:41.735Z,75.77
2018-09-30T21:04:11.155Z,75.44
2018-09-30T21:06:42.789Z,75.58
2018-09-30T21:09:14.797Z,75.81
2018-09-30T21:11:44.232Z,76.50
2018-09-30T21:14:13.628Z,77.15
2018-09-30T21:16:43.046Z,77.21
2018-09-30T21:19:15.370Z,78.00
2018-09-30T21:21:44.783Z,77.47
2018-09-30T21:24:14.180Z,77.81
2018-09-30T21:26:43.575Z,77.99
2018-09-30T21:29:13.008Z,78.27
2018-09-30T21:31:42.407Z,78.99
2018-09-30T21:34:11.916Z,79.06
2018-09-30T21:36:41.296Z,78.61
2018-09-30T21:39:11.679Z,78.36
2018-09-30T21:41:41.121Z,77.87
2018-09-30T21:44:10.615Z,77.74
2018-09-30T21:46:40.015Z,77.72
2018-09-30T21:49:09.443Z,77.10
2018-09-30T21:51:38.829Z,76.88
2018-09-30T21:54:08.231Z,77.34
2018-09-30T21:56:37.636Z,77.19
2018-09-30T21:59:07.239Z,77.92
2018-09-30T22:01:36.806Z,78.26
2018-09-30T22:04:06.164Z,78.27
2018-09-30T22:06:35.587Z,78.46
2018-09-30T22:09:05.986Z,79.42
2018-09-30T22:11:35.402Z,80.06
2018-09-30T22:14:04.815Z,79.74
2018-09-30T22:16:34.239Z,79.22
2018-09-30T22:19:03.672Z,79.50
2018-09-30T22:21:33.067Z,79.12
2018-09-30T22:24:02.507Z,81.20
2018-09-30T22:26:31.928Z,81.13
2018-09-30T22:29:01.328Z,81.14
2018-09-30T22:31:30.725Z,81.49
2018-09-30T22:34:00.131Z,81.82
2018-09-30T22:36:29.542Z,81.45
2018-09-30T22:38:58.949Z,81.72
2018-09-30T22:41:28.451Z,80.97
2018-09-30T22:43:57.847Z,81.42
2018-09-30T22:46:27.271Z,81.25
2018-09-30T22:48:56.739Z,80.38
2018-09-30T22:51:26.157Z,80.88
2018-09-30T22:53:55.582Z,80.60
2018-09-30T22:56:24.976Z,80.79
2018-09-30T22:58:54.372Z,81.49
2018-09-30T23:01:23.773Z,81.68
2018-09-30T23:03:53.188Z,81.10
2018-09-30T23:06:22.585Z,81.31
2018-09-30T23:08:51.996Z,80.94
2018-09-30T23:11:21.420Z,80.98
2018-09-30T23:13:50.822Z,81.58
2018-09-30T23:16:20.220Z,81.55
2018-09-30T23:18:49.708Z,82.05
2018-09-30T23:21:19.387Z,83.69
2018-09-30T23:23:48.998Z,84.11
2018-09-30T23:26:18.703Z,83.90
2018-09-30T23:28:48.244Z,84.38
2018-09-30T23:31:17.852Z,83.67
2018-09-30T23:33:47.498Z,84.04
2018-09-30T23:36:17.201Z,83.79
2018-09-30T23:38:46.804Z,83.55
2018-09-30T23:41:16.212Z,83.78
2018-09-30T23:43:45.621Z,84.17
2018-09-30T23:46:15.012Z,83.98
2018-09-30T23:48:44.399Z,82.54
2018-09-30T23:51:13.812Z,82.24
2018-09-30T23:53:43.296Z,82.87
2018-09-30T23:56:12.713Z,83.01
2018-09-30T23:58:42.123Z,82.95
